createdAt,value
2019-05-26T00:00:48.151Z,75.35
2019-05-26T00:01:47.275Z,75.24
2019-05-26T00:02:47.263Z,75.04
2019-05-26T00:03:47.254Z,74.39
2019-05-26T00:04:47.293Z,74.19
2019-05-26T00:05:47.233Z,73.88
2019-05-26T00:06:47.223Z,73.88
2019-05-26T00:07:47.211Z,73.98
2019-05-26T00:08:47.200Z,74.39
2019-05-26T00:09:47.189Z,74.43
2019-05-26T00:10:47.208Z,74.53
2019-05-26T00:11:47.171Z,74.63
2019-05-26T00:12:47.158Z,74.43
2019-05-26T00:13:47.148Z,74.73
2019-05-26T00:14:47.163Z,75.04
2019-05-26T00:15:47.168Z,75.35
2019-05-26T00:16:47.139Z,75.45
2019-05-26T00:17:47.107Z,75.24
2019-05-26T00:18:47.098Z,75.14
2019-05-26T00:19:47.085Z,75.45
2019-05-26T00:20:47.847Z,75.55
2019-05-26T00:21:48.315Z,75.45
2019-05-26T00:22:47.053Z,75.96
2019-05-26T00:23:47.046Z,76.06
2019-05-26T00:24:47.036Z,76.06
2019-05-26T00:25:47.054Z,76.17
2019-05-26T00:26:47.011Z,75.76
2019-05-26T00:27:47.004Z,75.45
2019-05-26T00:28:47.000Z,75.45
2019-05-26T00:29:46.980Z,75.55
2019-05-26T00:30:47.818Z,75.55
2019-05-26T00:31:46.959Z,75.10
2019-05-26T00:32:47.698Z,74.69
2019-05-26T00:33:46.939Z,74.49
2019-05-26T00:34:46.949Z,74.29
2019-05-26T00:35:47.697Z,74.08
2019-05-26T00:36:46.906Z,73.78
2019-05-26T00:37:49.700Z,73.74
2019-05-26T00:38:46.905Z,73.78
2019-05-26T00:39:46.875Z,73.54
2019-05-26T00:40:46.886Z,73.78
2019-05-26T00:41:47.693Z,73.68
2019-05-26T00:42:46.843Z,73.78
2019-05-26T00:43:46.836Z,73.98
2019-05-26T00:44:46.858Z,74.29
2019-05-26T00:45:47.694Z,74.29
2019-05-26T00:46:46.802Z,74.63
2019-05-26T00:47:46.792Z,74.84
2019-05-26T00:48:46.930Z,74.94
2019-05-26T00:49:46.770Z,75.24
2019-05-26T00:50:46.789Z,75.65
2019-05-26T00:51:46.749Z,75.79
2019-05-26T00:52:46.745Z,75.76
2019-05-26T00:53:46.729Z,75.89
2019-05-26T00:54:46.717Z,75.79
2019-05-26T00:55:47.344Z,75.55
2019-05-26T00:56:46.708Z,75.35
2019-05-26T00:57:46.688Z,75.24
2019-05-26T00:58:46.677Z,75.14
2019-05-26T00:59:46.666Z,75.04
2019-05-26T01:00:46.696Z,75.24
2019-05-26T01:01:46.646Z,75.89
2019-05-26T01:02:46.633Z,75.89
2019-05-26T01:03:47.421Z,75.89
2019-05-26T01:04:46.612Z,76.10
2019-05-26T01:05:49.203Z,76.31
2019-05-26T01:06:46.591Z,76.51
2019-05-26T01:07:46.581Z,76.61
2019-05-26T01:08:46.571Z,76.51
2019-05-26T01:09:46.560Z,76.51
2019-05-26T01:10:46.582Z,76.51
2019-05-26T01:11:46.539Z,76.31
2019-05-26T01:12:46.532Z,76.10
2019-05-26T01:13:46.521Z,75.96
2019-05-26T01:14:46.520Z,75.55
2019-05-26T01:15:46.498Z,75.14
2019-05-26T01:16:46.517Z,74.94
2019-05-26T01:17:46.476Z,74.84
2019-05-26T01:18:46.505Z,74.73
2019-05-26T01:19:46.455Z,74.60
2019-05-26T01:20:46.447Z,74.29
2019-05-26T01:21:46.464Z,74.29
2019-05-26T01:22:46.423Z,74.19
2019-05-26T01:23:46.414Z,74.08
2019-05-26T01:24:46.403Z,73.88
2019-05-26T01:25:46.392Z,73.68
2019-05-26T01:26:46.411Z,73.36
2019-05-26T01:27:46.372Z,73.06
2019-05-26T01:28:46.363Z,73.27
2019-05-26T01:29:46.350Z,73.61
2019-05-26T01:30:46.339Z,73.81
2019-05-26T01:31:46.356Z,73.71
2019-05-26T01:32:46.325Z,73.71
2019-05-26T01:33:46.308Z,74.32
2019-05-26T01:34:46.329Z,74.36
2019-05-26T01:35:46.286Z,74.46
2019-05-26T01:36:46.306Z,74.56
2019-05-26T01:37:46.266Z,74.77
2019-05-26T01:38:46.256Z,74.97
2019-05-26T01:39:46.246Z,75.28
2019-05-26T01:40:46.256Z,75.38
2019-05-26T01:41:46.254Z,75.59
2019-05-26T01:42:46.254Z,75.69
2019-05-26T01:43:46.203Z,75.89
2019-05-26T01:44:46.209Z,76.14
2019-05-26T01:45:46.184Z,75.59
2019-05-26T01:46:46.200Z,75.59
2019-05-26T01:47:46.161Z,75.69
2019-05-26T01:48:46.151Z,75.99
2019-05-26T01:49:46.140Z,75.79
2019-05-26T01:50:46.129Z,75.69
2019-05-26T01:51:46.151Z,75.48
2019-05-26T01:52:46.107Z,75.38
2019-05-26T01:53:46.099Z,75.07
2019-05-26T01:54:46.095Z,74.97
2019-05-26T01:55:46.083Z,74.97
2019-05-26T01:56:46.094Z,74.87
2019-05-26T01:57:46.056Z,74.97
2019-05-26T01:58:46.045Z,74.97
2019-05-26T01:59:46.039Z,75.18
2019-05-26T02:00:46.024Z,75.48
2019-05-26T02:01:46.112Z,75.99
2019-05-26T02:02:46.973Z,76.75
2019-05-26T02:03:45.993Z,76.31
2019-05-26T02:04:45.983Z,76.20
2019-05-26T02:05:45.993Z,76.51
2019-05-26T02:06:45.982Z,76.85
2019-05-26T02:07:45.951Z,76.75
2019-05-26T02:08:45.940Z,77.36
2019-05-26T02:09:45.929Z,77.26
2019-05-26T02:10:45.925Z,77.77
2019-05-26T02:11:45.936Z,78.08
2019-05-26T02:12:45.898Z,78.08
2019-05-26T02:13:45.887Z,77.87
2019-05-26T02:14:45.878Z,77.77
2019-05-26T02:15:46.432Z,77.67
2019-05-26T02:16:45.878Z,77.98
2019-05-26T02:17:45.844Z,78.39
2019-05-26T02:18:45.834Z,78.32
2019-05-26T02:19:45.822Z,78.32
2019-05-26T02:20:45.814Z,78.42
2019-05-26T02:21:46.164Z,78.74
2019-05-26T02:22:45.792Z,78.74
2019-05-26T02:23:45.782Z,78.49
2019-05-26T02:24:45.770Z,78.94
2019-05-26T02:25:45.782Z,79.24
2019-05-26T02:26:45.779Z,79.66
2019-05-26T02:27:45.772Z,79.55
2019-05-26T02:28:45.730Z,79.55
2019-05-26T02:29:45.719Z,79.45
2019-05-26T02:30:45.740Z,79.66
2019-05-26T02:31:45.699Z,79.45
2019-05-26T02:32:45.700Z,79.35
2019-05-26T02:33:45.677Z,79.35
2019-05-26T02:34:46.512Z,79.55
2019-05-26T02:35:45.678Z,79.35
2019-05-26T02:36:45.648Z,79.00
2019-05-26T02:37:45.635Z,79.04
2019-05-26T02:39:01.310Z,79.04
2019-05-26T02:39:46.615Z,78.94
2019-05-26T02:40:45.625Z,78.70
2019-05-26T02:41:46.477Z,78.39
2019-05-26T02:42:45.581Z,78.08
2019-05-26T02:43:45.573Z,77.87
2019-05-26T02:44:45.569Z,77.77
2019-05-26T02:45:45.582Z,77.57
2019-05-26T02:46:45.568Z,77.57
2019-05-26T02:47:45.532Z,77.47
2019-05-26T02:48:45.519Z,77.36
2019-05-26T02:49:45.511Z,77.26
2019-05-26T02:50:46.038Z,77.16
2019-05-26T02:51:45.488Z,76.95
2019-05-26T02:52:45.475Z,76.95
2019-05-26T02:53:45.470Z,76.85
2019-05-26T02:54:45.516Z,76.61
2019-05-26T02:55:45.468Z,76.40
2019-05-26T02:56:45.435Z,76.34
2019-05-26T02:57:45.426Z,76.14
2019-05-26T02:58:45.413Z,76.03
2019-05-26T02:59:45.403Z,76.03
2019-05-26T03:00:45.430Z,75.93
2019-05-26T03:02:02.520Z,75.82
2019-05-26T03:02:46.373Z,75.93
2019-05-26T03:03:45.359Z,75.93
2019-05-26T03:04:45.377Z,75.93
2019-05-26T03:05:45.382Z,75.82
2019-05-26T03:06:45.331Z,75.93
2019-05-26T03:07:45.345Z,75.82
2019-05-26T03:08:45.307Z,75.93
2019-05-26T03:09:45.299Z,75.73
2019-05-26T03:10:45.291Z,75.86
2019-05-26T03:11:45.300Z,75.76
2019-05-26T03:12:45.269Z,75.86
2019-05-26T03:13:45.255Z,76.07
2019-05-26T03:14:45.244Z,76.07
2019-05-26T03:15:45.247Z,76.27
2019-05-26T03:16:45.246Z,76.17
2019-05-26T03:17:45.207Z,76.07
2019-05-26T03:18:45.196Z,75.86
2019-05-26T03:19:45.185Z,75.96
2019-05-26T03:20:45.195Z,76.62
2019-05-26T03:21:45.195Z,76.72
2019-05-26T03:22:45.163Z,76.72
2019-05-26T03:23:45.144Z,76.62
2019-05-26T03:24:45.146Z,76.72
2019-05-26T03:25:45.129Z,76.92
2019-05-26T03:26:45.146Z,76.51
2019-05-26T03:27:46.035Z,76.51
2019-05-26T03:28:45.098Z,76.41
2019-05-26T03:29:45.108Z,76.41
2019-05-26T03:30:45.082Z,76.41
2019-05-26T03:31:45.091Z,76.51
2019-05-26T03:32:45.056Z,76.51
2019-05-26T03:33:45.066Z,76.51
2019-05-26T03:34:45.040Z,76.51
2019-05-26T03:35:45.035Z,76.41
2019-05-26T03:36:45.041Z,76.41
2019-05-26T03:37:45.003Z,76.27
2019-05-26T03:38:44.985Z,76.17
2019-05-26T03:39:46.301Z,76.17
2019-05-26T03:40:44.987Z,76.51
2019-05-26T03:41:44.987Z,76.72
2019-05-26T03:42:44.945Z,76.92
2019-05-26T03:43:45.760Z,77.95
2019-05-26T03:44:44.924Z,77.64
2019-05-26T03:45:44.911Z,77.64
2019-05-26T03:46:44.931Z,77.54
2019-05-26T03:47:44.898Z,77.44
2019-05-26T03:48:44.916Z,77.20
2019-05-26T03:49:44.877Z,77.29
2019-05-26T03:50:44.861Z,77.09
2019-05-26T03:51:44.880Z,77.09
2019-05-26T03:52:44.924Z,77.20
2019-05-26T03:53:44.838Z,77.09
2019-05-26T03:54:44.820Z,77.16
2019-05-26T03:55:46.159Z,77.16
2019-05-26T03:56:45.636Z,76.95
2019-05-26T03:57:44.816Z,77.06
2019-05-26T03:58:44.776Z,76.75
2019-05-26T03:59:44.765Z,76.61
2019-05-26T04:00:44.755Z,76.31
2019-05-26T04:01:44.786Z,76.51
2019-05-26T04:02:44.741Z,76.92
2019-05-26T04:03:44.736Z,76.31
2019-05-26T04:04:44.715Z,76.31
2019-05-26T04:05:44.703Z,76.31
2019-05-26T04:06:45.777Z,76.10
2019-05-26T04:07:44.681Z,76.68
2019-05-26T04:08:44.670Z,77.39
2019-05-26T04:10:02.966Z,77.29
2019-05-26T04:10:45.649Z,77.29
2019-05-26T04:11:45.297Z,76.68
2019-05-26T04:12:44.652Z,76.68
2019-05-26T04:13:44.625Z,77.09
2019-05-26T04:14:44.607Z,76.95
2019-05-26T04:15:44.596Z,77.46
2019-05-26T04:16:44.621Z,77.46
2019-05-26T04:17:44.610Z,76.84
2019-05-26T04:18:44.565Z,76.61
2019-05-26T04:19:44.558Z,76.61
2019-05-26T04:20:45.966Z,76.50
2019-05-26T04:21:44.533Z,76.40
2019-05-26T04:22:45.203Z,76.30
2019-05-26T04:23:44.513Z,76.30
2019-05-26T04:24:44.501Z,76.20
2019-05-26T04:25:44.499Z,76.09
2019-05-26T04:26:44.482Z,75.99
2019-05-26T04:27:44.537Z,75.89
2019-05-26T04:28:44.470Z,75.75
2019-05-26T04:29:44.450Z,75.96
2019-05-26T04:30:44.440Z,75.96
2019-05-26T04:31:44.427Z,75.75
2019-05-26T04:32:44.446Z,75.45
2019-05-26T04:33:44.414Z,76.06
2019-05-26T04:34:44.396Z,75.82
2019-05-26T04:35:44.422Z,75.71
2019-05-26T04:36:44.393Z,75.31
2019-05-26T04:37:44.396Z,75.00
2019-05-26T04:38:44.355Z,75.00
2019-05-26T04:39:44.356Z,75.71
2019-05-26T04:40:44.342Z,75.24
2019-05-26T04:41:44.398Z,76.03
2019-05-26T04:42:44.347Z,75.34
2019-05-26T04:43:44.318Z,75.31
2019-05-26T04:44:44.322Z,76.43
2019-05-26T04:45:44.281Z,76.03
2019-05-26T04:46:45.192Z,75.10
2019-05-26T04:47:44.290Z,75.68
2019-05-26T04:48:44.250Z,75.37
2019-05-26T04:49:44.241Z,75.99
2019-05-26T04:50:44.228Z,74.87
2019-05-26T04:51:44.220Z,75.27
2019-05-26T04:53:04.561Z,76.29
2019-05-26T04:53:45.223Z,75.27
2019-05-26T04:54:44.208Z,75.68
2019-05-26T04:55:44.175Z,76.46
2019-05-26T04:56:44.168Z,75.34
2019-05-26T04:57:44.184Z,75.54
2019-05-26T04:58:44.146Z,76.84
2019-05-26T04:59:44.134Z,75.16
2019-05-26T05:00:44.124Z,75.16
2019-05-26T05:01:44.191Z,74.66
2019-05-26T05:02:44.154Z,75.13
2019-05-26T05:03:44.101Z,74.79
2019-05-26T05:04:44.082Z,74.42
2019-05-26T05:05:44.071Z,74.38
2019-05-26T05:06:44.060Z,75.20
2019-05-26T05:07:44.080Z,74.55
2019-05-26T05:08:44.039Z,74.35
2019-05-26T05:09:44.028Z,73.43
2019-05-26T05:10:44.018Z,73.84
2019-05-26T05:11:44.007Z,73.74
2019-05-26T05:12:44.776Z,75.02
2019-05-26T05:13:43.988Z,74.41
2019-05-26T05:14:44.682Z,74.28
2019-05-26T05:15:43.965Z,72.34
2019-05-26T05:16:43.958Z,72.41
2019-05-26T05:17:43.965Z,71.80
2019-05-26T05:18:43.933Z,71.40
2019-05-26T05:19:44.796Z,71.50
2019-05-26T05:20:44.776Z,71.91
2019-05-26T05:21:43.902Z,72.17
2019-05-26T05:22:43.992Z,70.75
2019-05-26T05:23:43.889Z,71.06
2019-05-26T05:24:43.868Z,71.47
2019-05-26T05:25:44.389Z,71.12
2019-05-26T05:26:43.882Z,70.42
2019-05-26T05:27:44.418Z,70.59
2019-05-26T05:28:43.825Z,69.98
2019-05-26T05:29:43.817Z,69.78
2019-05-26T05:30:43.808Z,69.26
2019-05-26T05:31:43.787Z,68.55
2019-05-26T05:32:43.778Z,68.45
2019-05-26T05:33:43.796Z,68.86
2019-05-26T05:34:43.756Z,69.37
2019-05-26T05:35:43.753Z,68.96
2019-05-26T05:36:43.734Z,68.66
2019-05-26T05:37:44.344Z,68.45
2019-05-26T05:38:43.748Z,68.76
2019-05-26T05:39:43.704Z,68.93
2019-05-26T05:40:58.337Z,68.32
2019-05-26T05:41:44.684Z,69.10
2019-05-26T05:42:43.671Z,67.78
2019-05-26T05:43:43.691Z,67.17
2019-05-26T05:44:43.653Z,67.55
2019-05-26T05:45:44.841Z,67.31
2019-05-26T05:46:43.631Z,66.88
2019-05-26T05:47:44.957Z,66.19
2019-05-26T05:48:43.640Z,66.16
2019-05-26T05:49:43.599Z,65.66
2019-05-26T05:50:43.589Z,65.66
2019-05-26T05:51:43.578Z,64.67
2019-05-26T05:52:43.567Z,65.28
2019-05-26T05:53:44.448Z,65.86
2019-05-26T05:54:43.547Z,65.36
2019-05-26T05:55:43.535Z,64.51
2019-05-26T05:56:43.525Z,64.51
2019-05-26T05:57:43.514Z,65.02
2019-05-26T05:58:43.525Z,64.11
2019-05-26T05:59:43.524Z,64.38
2019-05-26T06:00:43.484Z,64.79
2019-05-26T06:01:43.476Z,63.75
2019-05-26T06:02:43.470Z,62.84
2019-05-26T06:03:43.494Z,63.34
2019-05-26T06:04:43.951Z,63.01
2019-05-26T06:05:43.433Z,62.10
2019-05-26T06:06:43.412Z,61.69
2019-05-26T06:07:43.413Z,62.40
2019-05-26T06:08:43.500Z,61.29
2019-05-26T06:09:44.789Z,61.52
2019-05-26T06:10:43.400Z,61.90
2019-05-26T06:11:43.369Z,62.19
2019-05-26T06:12:44.301Z,61.25
2019-05-26T06:13:43.339Z,61.66
2019-05-26T06:14:43.328Z,60.72
2019-05-26T06:15:43.351Z,59.81
2019-05-26T06:16:43.314Z,60.42
2019-05-26T06:17:43.308Z,60.12
2019-05-26T06:18:43.287Z,59.81
2019-05-26T06:19:43.286Z,59.81
2019-05-26T06:20:43.295Z,59.21
2019-05-26T06:21:43.944Z,59.31
2019-05-26T06:22:43.245Z,59.51
2019-05-26T06:23:43.242Z,59.51
2019-05-26T06:24:43.224Z,59.71
2019-05-26T06:25:43.261Z,59.91
2019-05-26T06:26:43.225Z,59.21
2019-05-26T06:27:43.203Z,59.00
2019-05-26T06:28:43.209Z,59.58
2019-05-26T06:29:57.782Z,58.50
2019-05-26T06:30:44.202Z,58.91
2019-05-26T06:31:43.246Z,59.11
2019-05-26T06:32:43.147Z,59.51
2019-05-26T06:33:43.938Z,59.48
2019-05-26T06:34:43.119Z,59.38
2019-05-26T06:35:43.108Z,58.87
2019-05-26T06:36:43.127Z,59.28
2019-05-26T06:37:43.088Z,59.15
2019-05-26T06:38:43.076Z,58.54
2019-05-26T06:39:43.066Z,58.25
2019-05-26T06:40:43.065Z,58.54
2019-05-26T06:41:43.080Z,58.54
2019-05-26T06:42:43.045Z,58.34
2019-05-26T06:43:43.835Z,58.12
2019-05-26T06:44:52.936Z,57.81
2019-05-26T06:45:45.050Z,58.12
2019-05-26T06:46:43.020Z,58.12
2019-05-26T06:47:43.959Z,59.02
2019-05-26T06:48:42.972Z,58.32
2019-05-26T06:49:42.969Z,58.69
2019-05-26T06:50:43.472Z,57.05
2019-05-26T06:51:42.969Z,56.45
2019-05-26T06:52:42.931Z,56.22
2019-05-26T06:53:42.920Z,55.51
2019-05-26T06:54:42.907Z,55.82
2019-05-26T06:55:42.899Z,54.88
2019-05-26T06:56:42.916Z,55.39
2019-05-26T06:57:43.509Z,54.58
2019-05-26T06:58:42.871Z,54.99
2019-05-26T06:59:42.851Z,54.15
2019-05-26T07:00:42.866Z,54.25
2019-05-26T07:01:42.858Z,54.18
2019-05-26T07:02:42.825Z,54.71
2019-05-26T07:03:42.820Z,54.10
2019-05-26T07:04:42.804Z,53.90
2019-05-26T07:05:42.795Z,54.48
2019-05-26T07:06:42.805Z,54.55
2019-05-26T07:07:43.633Z,54.25
2019-05-26T07:08:42.755Z,53.85
2019-05-26T07:09:42.743Z,52.92
2019-05-26T07:10:42.733Z,52.62
2019-05-26T07:11:55.676Z,52.92
2019-05-26T07:12:43.712Z,53.12
2019-05-26T07:13:42.704Z,53.83
2019-05-26T07:14:42.713Z,52.54
2019-05-26T07:15:42.682Z,53.65
2019-05-26T07:16:42.701Z,53.42
2019-05-26T07:17:42.662Z,52.72
2019-05-26T07:18:42.673Z,53.92
2019-05-26T07:19:42.640Z,51.99
2019-05-26T07:20:42.679Z,51.99
2019-05-26T07:21:42.647Z,51.56
2019-05-26T07:22:43.510Z,51.66
2019-05-26T07:23:42.597Z,51.54
2019-05-26T07:24:42.597Z,51.34
2019-05-26T07:25:42.576Z,51.34
2019-05-26T07:26:42.595Z,50.81
2019-05-26T07:27:42.555Z,50.31
2019-05-26T07:28:42.545Z,49.80
2019-05-26T07:29:42.532Z,49.40
2019-05-26T07:30:43.045Z,50.21
2019-05-26T07:31:42.543Z,49.08
2019-05-26T07:32:42.504Z,49.58
2019-05-26T07:33:42.494Z,49.88
2019-05-26T07:34:42.483Z,49.98
2019-05-26T07:35:42.469Z,49.48
2019-05-26T07:36:42.466Z,49.88
2019-05-26T07:37:42.473Z,48.38
2019-05-26T07:38:42.443Z,49.10
2019-05-26T07:39:42.501Z,49.91
2019-05-26T07:40:42.423Z,50.59
2019-05-26T07:41:42.403Z,50.46
2019-05-26T07:42:43.198Z,47.96
2019-05-26T07:43:42.409Z,48.46
2019-05-26T07:44:42.391Z,47.85
2019-05-26T07:45:42.360Z,48.46
2019-05-26T07:46:42.354Z,47.93
2019-05-26T07:47:42.389Z,47.63
2019-05-26T07:48:42.328Z,47.83
2019-05-26T07:49:42.325Z,48.31
2019-05-26T07:50:42.307Z,48.01
2019-05-26T07:51:42.297Z,47.81
2019-05-26T07:52:42.316Z,46.42
2019-05-26T07:53:42.279Z,46.70
2019-05-26T07:54:42.305Z,44.92
2019-05-26T07:55:42.254Z,45.54
2019-05-26T07:56:42.245Z,45.70
2019-05-26T07:57:42.262Z,46.11
2019-05-26T07:58:42.224Z,46.26
2019-05-26T07:59:42.213Z,44.35
2019-05-26T08:00:42.202Z,44.54
2019-05-26T08:01:43.142Z,43.85
2019-05-26T08:02:42.202Z,44.58
2019-05-26T08:03:42.174Z,44.06
2019-05-26T08:04:42.160Z,44.84
2019-05-26T08:05:42.167Z,43.32
2019-05-26T08:06:43.122Z,42.93
2019-05-26T08:07:42.151Z,42.76
2019-05-26T08:08:42.118Z,44.26
2019-05-26T08:09:42.111Z,43.58
2019-05-26T08:10:42.099Z,44.66
2019-05-26T08:11:42.088Z,42.46
2019-05-26T08:12:42.105Z,45.43
2019-05-26T08:13:42.065Z,43.93
2019-05-26T08:14:42.058Z,43.33
2019-05-26T08:15:42.109Z,42.32
2019-05-26T08:16:42.036Z,41.39
2019-05-26T08:17:42.048Z,40.59
2019-05-26T08:18:42.015Z,40.99
2019-05-26T08:19:42.006Z,41.61
2019-05-26T08:20:41.996Z,40.91
2019-05-26T08:21:41.975Z,40.53
2019-05-26T08:22:42.035Z,41.15
2019-05-26T08:23:42.548Z,41.27
2019-05-26T08:24:42.754Z,42.54
2019-05-26T08:25:41.958Z,41.91
2019-05-26T08:26:41.930Z,41.39
2019-05-26T08:27:41.942Z,41.61
2019-05-26T08:28:41.902Z,41.19
2019-05-26T08:29:41.899Z,41.31
2019-05-26T08:30:41.882Z,41.08
2019-05-26T08:31:41.877Z,41.16
2019-05-26T08:32:41.861Z,39.87
2019-05-26T08:33:41.880Z,40.67
2019-05-26T08:34:41.862Z,40.30
2019-05-26T08:35:41.867Z,41.25
2019-05-26T08:36:41.819Z,39.89
2019-05-26T08:37:41.809Z,41.25
2019-05-26T08:38:41.845Z,40.45
2019-05-26T08:39:41.788Z,39.82
2019-05-26T08:40:41.778Z,39.82
2019-05-26T08:41:41.785Z,38.80
2019-05-26T08:42:44.513Z,38.12
2019-05-26T08:43:41.768Z,39.50
2019-05-26T08:44:41.735Z,39.04
2019-05-26T08:45:41.815Z,39.43
2019-05-26T08:46:41.714Z,39.32
2019-05-26T08:47:41.704Z,38.70
2019-05-26T08:48:41.723Z,38.70
2019-05-26T08:49:41.684Z,38.20
2019-05-26T08:50:41.674Z,39.28
2019-05-26T08:51:41.663Z,38.09
2019-05-26T08:52:41.659Z,38.76
2019-05-26T08:53:41.671Z,38.45
2019-05-26T08:54:41.636Z,37.85
2019-05-26T08:55:41.622Z,37.35
2019-05-26T08:56:41.611Z,37.85
2019-05-26T08:57:41.605Z,38.67
2019-05-26T08:58:41.611Z,37.85
2019-05-26T08:59:41.577Z,36.85
2019-05-26T09:00:41.575Z,37.34
2019-05-26T09:01:41.559Z,38.33
2019-05-26T09:02:41.593Z,37.23
2019-05-26T09:03:41.560Z,36.34
2019-05-26T09:04:41.519Z,37.43
2019-05-26T09:05:41.509Z,36.82
2019-05-26T09:06:41.505Z,36.72
2019-05-26T09:07:41.509Z,36.82
2019-05-26T09:08:41.506Z,36.92
2019-05-26T09:09:41.471Z,36.92
2019-05-26T09:10:41.464Z,36.37
2019-05-26T09:11:41.447Z,38.35
2019-05-26T09:12:41.446Z,37.55
2019-05-26T09:13:41.456Z,37.04
2019-05-26T09:14:41.457Z,36.14
2019-05-26T09:15:41.413Z,36.22
2019-05-26T09:16:41.401Z,36.02
2019-05-26T09:17:41.384Z,36.70
2019-05-26T09:18:42.416Z,35.89
2019-05-26T09:19:41.398Z,34.91
2019-05-26T09:20:41.423Z,35.61
2019-05-26T09:21:41.375Z,34.89
2019-05-26T09:22:41.336Z,35.31
2019-05-26T09:23:41.351Z,34.91
2019-05-26T09:24:41.334Z,35.01
2019-05-26T09:25:41.810Z,34.91
2019-05-26T09:26:42.211Z,35.52
2019-05-26T09:27:41.279Z,35.52
2019-05-26T09:28:41.299Z,34.71
2019-05-26T09:29:41.268Z,35.63
2019-05-26T09:30:41.252Z,35.80
2019-05-26T09:31:41.238Z,34.50
2019-05-26T09:32:41.230Z,35.31
2019-05-26T09:33:41.239Z,35.61
2019-05-26T09:34:41.964Z,35.21
2019-05-26T09:35:41.948Z,36.08
2019-05-26T09:36:41.220Z,34.48
2019-05-26T09:37:41.180Z,34.06
2019-05-26T09:38:41.193Z,34.27
2019-05-26T09:39:41.155Z,34.98
2019-05-26T09:40:41.154Z,34.48
2019-05-26T09:41:41.138Z,34.48
2019-05-26T09:42:41.124Z,35.10
2019-05-26T09:43:41.175Z,34.48
2019-05-26T09:44:41.102Z,34.52
2019-05-26T09:45:41.093Z,35.61
2019-05-26T09:46:41.965Z,35.33
2019-05-26T09:47:41.073Z,36.32
2019-05-26T09:48:41.743Z,35.31
2019-05-26T09:49:41.052Z,36.04
2019-05-26T09:50:41.041Z,36.50
2019-05-26T09:51:41.029Z,36.66
2019-05-26T09:52:41.020Z,35.97
2019-05-26T09:53:41.030Z,35.47
2019-05-26T09:54:41.002Z,35.75
2019-05-26T09:55:40.987Z,35.26
2019-05-26T09:56:40.977Z,34.66
2019-05-26T09:57:40.973Z,35.06
2019-05-26T09:58:41.839Z,34.64
2019-05-26T09:59:40.945Z,35.42
2019-05-26T10:00:40.935Z,33.92
2019-05-26T10:01:40.927Z,34.20
2019-05-26T10:02:40.947Z,35.49
2019-05-26T10:03:40.906Z,34.58
2019-05-26T10:04:40.924Z,33.69
2019-05-26T10:05:41.377Z,34.68
2019-05-26T10:06:41.517Z,34.58
2019-05-26T10:07:40.877Z,35.07
2019-05-26T10:08:40.848Z,34.88
2019-05-26T10:09:40.866Z,34.99
2019-05-26T10:10:41.375Z,35.50
2019-05-26T10:11:40.816Z,35.14
2019-05-26T10:12:40.805Z,34.76
2019-05-26T10:13:40.835Z,34.33
2019-05-26T10:14:40.817Z,34.73
2019-05-26T10:15:40.774Z,34.61
2019-05-26T10:16:40.763Z,35.11
2019-05-26T10:17:40.753Z,35.09
2019-05-26T10:18:40.774Z,34.08
2019-05-26T10:19:40.819Z,35.04
2019-05-26T10:20:40.728Z,34.74
2019-05-26T10:21:40.712Z,34.13
2019-05-26T10:22:40.723Z,35.71
2019-05-26T10:23:40.690Z,36.40
2019-05-26T10:24:40.709Z,35.29
2019-05-26T10:25:40.836Z,34.68
2019-05-26T10:26:41.530Z,34.68
2019-05-26T10:27:40.651Z,34.66
2019-05-26T10:28:40.639Z,34.13
2019-05-26T10:29:40.658Z,34.13
2019-05-26T10:30:41.407Z,34.23
2019-05-26T10:31:40.608Z,33.73
2019-05-26T10:32:40.598Z,34.25
2019-05-26T10:33:41.428Z,33.67
2019-05-26T10:34:40.607Z,34.17
2019-05-26T10:35:40.574Z,34.05
2019-05-26T10:36:40.742Z,33.54
2019-05-26T10:37:41.416Z,33.44
2019-05-26T10:38:42.175Z,33.85
2019-05-26T10:39:44.869Z,33.94
2019-05-26T10:40:40.683Z,32.66
2019-05-26T10:41:41.414Z,32.45
2019-05-26T10:42:40.494Z,32.84
2019-05-26T10:43:47.403Z,33.24
2019-05-26T10:44:41.534Z,33.94
2019-05-26T10:45:40.463Z,33.72
2019-05-26T10:46:40.452Z,33.64
2019-05-26T10:47:40.446Z,33.44
2019-05-26T10:48:40.432Z,33.52
2019-05-26T10:49:40.452Z,33.12
2019-05-26T10:50:40.420Z,33.54
2019-05-26T10:51:40.601Z,34.03
2019-05-26T10:52:40.396Z,34.34
2019-05-26T10:53:40.381Z,33.76
2019-05-26T10:54:40.397Z,33.98
2019-05-26T10:55:40.359Z,34.40
2019-05-26T10:56:40.349Z,34.38
2019-05-26T10:57:40.546Z,33.98
2019-05-26T10:58:40.331Z,34.99
2019-05-26T10:59:40.347Z,35.17
2019-05-26T11:00:40.308Z,34.68
2019-05-26T11:01:40.302Z,34.68
2019-05-26T11:02:40.329Z,35.97
2019-05-26T11:03:40.279Z,35.17
2019-05-26T11:04:41.036Z,35.10
2019-05-26T11:05:40.264Z,36.17
2019-05-26T11:06:40.314Z,34.74
2019-05-26T11:07:40.236Z,34.94
2019-05-26T11:08:41.019Z,35.11
2019-05-26T11:09:40.259Z,34.10
2019-05-26T11:10:41.158Z,33.29
2019-05-26T11:11:40.194Z,33.87
2019-05-26T11:12:40.234Z,32.58
2019-05-26T11:13:40.919Z,32.70
2019-05-26T11:14:40.376Z,33.11
2019-05-26T11:15:40.312Z,34.45
2019-05-26T11:16:40.140Z,35.16
2019-05-26T11:17:40.131Z,35.71
2019-05-26T11:18:40.243Z,34.00
2019-05-26T11:19:40.114Z,32.89
2019-05-26T11:20:40.121Z,33.61
2019-05-26T11:21:40.094Z,32.78
2019-05-26T11:22:40.088Z,33.07
2019-05-26T11:23:40.597Z,33.37
2019-05-26T11:24:40.156Z,32.56
2019-05-26T11:25:41.187Z,33.44
2019-05-26T11:26:40.039Z,32.34
2019-05-26T11:27:40.019Z,31.07
2019-05-26T11:28:40.015Z,30.67
2019-05-26T11:29:40.022Z,31.05
2019-05-26T11:30:40.017Z,30.65
2019-05-26T11:31:39.987Z,30.36
2019-05-26T11:32:39.977Z,30.55
2019-05-26T11:33:40.038Z,30.88
2019-05-26T11:34:40.517Z,31.48
2019-05-26T11:35:39.966Z,32.06
2019-05-26T11:36:40.541Z,31.53
2019-05-26T11:37:39.915Z,30.13
2019-05-26T11:38:39.913Z,30.63
2019-05-26T11:39:39.899Z,30.73
2019-05-26T11:40:39.915Z,31.62
2019-05-26T11:41:39.944Z,30.21
2019-05-26T11:42:39.866Z,30.81
2019-05-26T11:43:39.854Z,30.34
2019-05-26T11:44:39.873Z,30.33
2019-05-26T11:45:39.863Z,31.56
2019-05-26T11:46:39.822Z,31.16
2019-05-26T11:47:39.820Z,32.75
2019-05-26T11:48:40.530Z,32.06
2019-05-26T11:49:39.800Z,31.35
2019-05-26T11:50:39.815Z,30.85
2019-05-26T11:51:39.771Z,31.35
2019-05-26T11:52:39.840Z,31.04
2019-05-26T11:53:39.750Z,30.73
2019-05-26T11:54:40.705Z,29.83
2019-05-26T11:55:39.779Z,29.54
2019-05-26T11:56:39.717Z,30.52
2019-05-26T11:57:39.709Z,30.52
2019-05-26T11:58:39.702Z,30.44
2019-05-26T11:59:39.691Z,31.33
2019-05-26T12:00:40.418Z,30.64
2019-05-26T12:01:39.669Z,30.52
2019-05-26T12:02:39.657Z,30.85
2019-05-26T12:03:40.421Z,32.17
2019-05-26T12:04:39.635Z,33.09
2019-05-26T12:05:40.755Z,33.00
2019-05-26T12:06:39.615Z,32.70
2019-05-26T12:07:40.158Z,33.01
2019-05-26T12:08:39.609Z,32.70
2019-05-26T12:09:39.583Z,32.07
2019-05-26T12:10:39.594Z,31.65
2019-05-26T12:11:39.573Z,33.16
2019-05-26T12:12:39.547Z,31.97
2019-05-26T12:13:39.542Z,32.15
2019-05-26T12:14:39.532Z,30.95
2019-05-26T12:15:39.544Z,31.33
2019-05-26T12:16:39.539Z,31.36
2019-05-26T12:17:39.496Z,31.57
2019-05-26T12:18:39.490Z,31.96
2019-05-26T12:19:39.472Z,31.07
2019-05-26T12:20:39.492Z,31.05
2019-05-26T12:21:39.474Z,30.57
2019-05-26T12:22:39.448Z,31.79
2019-05-26T12:23:39.431Z,31.84
2019-05-26T12:24:39.442Z,32.07
2019-05-26T12:25:39.428Z,32.07
2019-05-26T12:26:39.432Z,31.68
2019-05-26T12:27:39.393Z,31.49
2019-05-26T12:28:39.384Z,32.25
2019-05-26T12:29:39.384Z,32.85
2019-05-26T12:30:39.366Z,30.55
2019-05-26T12:31:39.379Z,30.43
2019-05-26T12:32:39.359Z,29.43
2019-05-26T12:33:39.327Z,30.50
2019-05-26T12:34:39.317Z,29.99
2019-05-26T12:35:39.306Z,29.69
2019-05-26T12:36:39.625Z,29.80
2019-05-26T12:37:40.086Z,28.70
2019-05-26T12:38:39.276Z,29.19
2019-05-26T12:39:39.265Z,29.28
2019-05-26T12:40:40.085Z,29.02
2019-05-26T12:41:39.285Z,28.62
2019-05-26T12:42:39.235Z,29.74
2019-05-26T12:43:39.229Z,29.46
2019-05-26T12:44:49.042Z,30.54
2019-05-26T12:45:40.226Z,30.63
2019-05-26T12:46:39.223Z,30.61
2019-05-26T12:47:39.181Z,29.91
2019-05-26T12:48:39.172Z,30.30
2019-05-26T12:49:39.160Z,29.62
2019-05-26T12:50:40.111Z,29.74
2019-05-26T12:51:39.171Z,30.83
2019-05-26T12:52:40.022Z,30.76